sensor_id;sensor_type;location;lat;lon;timestamp;P1;durP1;ratioP1;P2;durP2;ratioP2
55489;SDS011;44029;52.956;4.772;2023-05-07T00:01:37;26.33;;;11.75;;
55489;SDS011;44029;52.956;4.772;2023-05-07T00:04:02;23.20;;;12.13;;
55489;SDS011;44029;52.956;4.772;2023-05-07T00:06:28;21.58;;;12.43;;
55489;SDS011;44029;52.956;4.772;2023-05-07T00:08:54;21.77;;;12.60;;
55489;SDS011;44029;52.956;4.772;2023-05-07T00:11:20;20.02;;;11.43;;
55489;SDS011;44029;52.956;4.772;2023-05-07T00:13:47;20.23;;;11.50;;
55489;SDS011;44029;52.956;4.772;2023-05-07T00:16:12;24.92;;;11.85;;
55489;SDS011;44029;52.956;4.772;2023-05-07T00:18:38;21.13;;;11.82;;
55489;SDS011;44029;52.956;4.772;2023-05-07T00:21:03;21.63;;;11.30;;
55489;SDS011;44029;52.956;4.772;2023-05-07T00:23:29;18.17;;;9.02;;
55489;SDS011;44029;52.956;4.772;2023-05-07T00:25:55;20.50;;;10.77;;
55489;SDS011;44029;52.956;4.772;2023-05-07T00:28:21;26.38;;;11.65;;
55489;SDS011;44029;52.956;4.772;2023-05-07T00:30:46;20.33;;;11.75;;
55489;SDS011;44029;52.956;4.772;2023-05-07T00:33:12;21.45;;;10.98;;
55489;SDS011;44029;52.956;4.772;2023-05-07T00:35:37;20.52;;;12.27;;
55489;SDS011;44029;52.956;4.772;2023-05-07T00:38:02;19.20;;;12.48;;
55489;SDS011;44029;52.956;4.772;2023-05-07T00:40:28;21.42;;;11.80;;
55489;SDS011;44029;52.956;4.772;2023-05-07T00:42:53;23.50;;;11.95;;
55489;SDS011;44029;52.956;4.772;2023-05-07T00:45:21;24.67;;;13.27;;
55489;SDS011;44029;52.956;4.772;2023-05-07T00:47:48;29.98;;;13.73;;
55489;SDS011;44029;52.956;4.772;2023-05-07T00:50:13;23.77;;;12.90;;
55489;SDS011;44029;52.956;4.772;2023-05-07T00:52:38;22.10;;;11.93;;
55489;SDS011;44029;52.956;4.772;2023-05-07T00:55:05;20.70;;;11.88;;
55489;SDS011;44029;52.956;4.772;2023-05-07T00:57:37;20.23;;;10.85;;
55489;SDS011;44029;52.956;4.772;2023-05-07T01:00:05;21.35;;;12.30;;
55489;SDS011;44029;52.956;4.772;2023-05-07T01:02:33;24.05;;;12.77;;
55489;SDS011;44029;52.956;4.772;2023-05-07T01:04:59;20.98;;;12.38;;
55489;SDS011;44029;52.956;4.772;2023-05-07T01:07:25;24.30;;;11.95;;
55489;SDS011;44029;52.956;4.772;2023-05-07T01:09:51;23.33;;;13.13;;
55489;SDS011;44029;52.956;4.772;2023-05-07T01:12:17;26.10;;;14.35;;
55489;SDS011;44029;52.956;4.772;2023-05-07T01:14:42;22.50;;;13.35;;
55489;SDS011;44029;52.956;4.772;2023-05-07T01:17:08;24.83;;;12.93;;
55489;SDS011;44029;52.956;4.772;2023-05-07T01:19:33;25.63;;;13.82;;
55489;SDS011;44029;52.956;4.772;2023-05-07T01:22:07;25.20;;;13.45;;
55489;SDS011;44029;52.956;4.772;2023-05-07T01:24:35;25.50;;;14.43;;
55489;SDS011;44029;52.956;4.772;2023-05-07T01:27:02;26.90;;;14.18;;
55489;SDS011;44029;52.956;4.772;2023-05-07T01:29:27;27.48;;;13.85;;
55489;SDS011;44029;52.956;4.772;2023-05-07T01:31:53;27.35;;;14.85;;
55489;SDS011;44029;52.956;4.772;2023-05-07T01:34:22;25.02;;;14.02;;
55489;SDS011;44029;52.956;4.772;2023-05-07T01:36:51;29.25;;;15.68;;
55489;SDS011;44029;52.956;4.772;2023-05-07T01:39:20;27.92;;;15.70;;
55489;SDS011;44029;52.956;4.772;2023-05-07T01:41:46;29.33;;;16.55;;
55489;SDS011;44029;52.956;4.772;2023-05-07T01:44:12;31.30;;;16.65;;
55489;SDS011;44029;52.956;4.772;2023-05-07T01:46:38;28.45;;;16.67;;
55489;SDS011;44029;52.956;4.772;2023-05-07T01:49:04;28.58;;;15.60;;
55489;SDS011;44029;52.956;4.772;2023-05-07T01:51:29;31.65;;;16.50;;
55489;SDS011;44029;52.956;4.772;2023-05-07T01:53:56;30.38;;;17.15;;
55489;SDS011;44029;52.956;4.772;2023-05-07T01:56:21;33.55;;;16.17;;
55489;SDS011;44029;52.956;4.772;2023-05-07T01:58:47;32.90;;;16.88;;
55489;SDS011;44029;52.956;4.772;2023-05-07T02:01:13;31.00;;;16.90;;
55489;SDS011;44029;52.956;4.772;2023-05-07T02:03:38;32.92;;;16.98;;
55489;SDS011;44029;52.956;4.772;2023-05-07T02:06:04;29.98;;;17.38;;
55489;SDS011;44029;52.956;4.772;2023-05-07T02:08:29;28.15;;;17.48;;
55489;SDS011;44029;52.956;4.772;2023-05-07T02:10:55;28.45;;;16.88;;
55489;SDS011;44029;52.956;4.772;2023-05-07T02:13:21;28.70;;;17.70;;
55489;SDS011;44029;52.956;4.772;2023-05-07T02:15:47;31.35;;;17.17;;
55489;SDS011;44029;52.956;4.772;2023-05-07T02:18:15;31.38;;;17.48;;
55489;SDS011;44029;52.956;4.772;2023-05-07T02:20:41;35.35;;;19.10;;
55489;SDS011;44029;52.956;4.772;2023-05-07T02:23:06;31.45;;;17.63;;
55489;SDS011;44029;52.956;4.772;2023-05-07T02:25:32;32.63;;;19.17;;
55489;SDS011;44029;52.956;4.772;2023-05-07T02:27:57;35.65;;;19.73;;
55489;SDS011;44029;52.956;4.772;2023-05-07T02:30:22;35.55;;;18.98;;
55489;SDS011;44029;52.956;4.772;2023-05-07T02:32:48;39.33;;;19.38;;
55489;SDS011;44029;52.956;4.772;2023-05-07T02:35:14;33.25;;;19.38;;
55489;SDS011;44029;52.956;4.772;2023-05-07T02:37:39;35.58;;;21.02;;
55489;SDS011;44029;52.956;4.772;2023-05-07T02:40:04;36.35;;;19.88;;
55489;SDS011;44029;52.956;4.772;2023-05-07T02:42:30;37.38;;;19.70;;
55489;SDS011;44029;52.956;4.772;2023-05-07T02:44:56;39.92;;;19.20;;
55489;SDS011;44029;52.956;4.772;2023-05-07T02:47:21;32.38;;;19.55;;
55489;SDS011;44029;52.956;4.772;2023-05-07T02:49:47;44.05;;;21.02;;
55489;SDS011;44029;52.956;4.772;2023-05-07T02:52:12;37.50;;;21.77;;
55489;SDS011;44029;52.956;4.772;2023-05-07T02:54:38;39.13;;;20.88;;
55489;SDS011;44029;52.956;4.772;2023-05-07T02:57:03;39.08;;;22.00;;
55489;SDS011;44029;52.956;4.772;2023-05-07T02:59:28;39.33;;;21.80;;
55489;SDS011;44029;52.956;4.772;2023-05-07T03:01:54;38.20;;;21.95;;
55489;SDS011;44029;52.956;4.772;2023-05-07T03:04:19;42.63;;;22.60;;
55489;SDS011;44029;52.956;4.772;2023-05-07T03:06:45;38.58;;;20.70;;
55489;SDS011;44029;52.956;4.772;2023-05-07T03:09:10;34.35;;;21.42;;
55489;SDS011;44029;52.956;4.772;2023-05-07T03:11:36;44.10;;;22.17;;
55489;SDS011;44029;52.956;4.772;2023-05-07T03:14:01;34.22;;;20.42;;
55489;SDS011;44029;52.956;4.772;2023-05-07T03:16:27;35.03;;;20.95;;
55489;SDS011;44029;52.956;4.772;2023-05-07T03:18:52;44.17;;;21.73;;
55489;SDS011;44029;52.956;4.772;2023-05-07T03:21:18;39.30;;;21.60;;
55489;SDS011;44029;52.956;4.772;2023-05-07T03:23:43;39.75;;;21.67;;
55489;SDS011;44029;52.956;4.772;2023-05-07T03:26:08;39.83;;;21.45;;
55489;SDS011;44029;52.956;4.772;2023-05-07T03:28:34;32.65;;;21.38;;
55489;SDS011;44029;52.956;4.772;2023-05-07T03:30:59;35.60;;;20.58;;
55489;SDS011;44029;52.956;4.772;2023-05-07T03:33:25;34.03;;;20.77;;
55489;SDS011;44029;52.956;4.772;2023-05-07T03:35:52;30.90;;;19.35;;
55489;SDS011;44029;52.956;4.772;2023-05-07T03:38:17;37.80;;;20.50;;
55489;SDS011;44029;52.956;4.772;2023-05-07T03:40:43;35.03;;;19.98;;
55489;SDS011;44029;52.956;4.772;2023-05-07T03:43:08;38.28;;;19.80;;
55489;SDS011;44029;52.956;4.772;2023-05-07T03:45:33;33.05;;;19.33;;
55489;SDS011;44029;52.956;4.772;2023-05-07T03:47:59;37.00;;;20.52;;
55489;SDS011;44029;52.956;4.772;2023-05-07T03:50:24;35.63;;;19.23;;
55489;SDS011;44029;52.956;4.772;2023-05-07T03:52:49;34.28;;;19.63;;
55489;SDS011;44029;52.956;4.772;2023-05-07T03:55:15;32.55;;;18.50;;
55489;SDS011;44029;52.956;4.772;2023-05-07T03:57:40;34.08;;;19.15;;
55489;SDS011;44029;52.956;4.772;2023-05-07T04:00:06;32.17;;;17.60;;
55489;SDS011;44029;52.956;4.772;2023-05-07T04:02:32;31.85;;;19.15;;
55489;SDS011;44029;52.956;4.772;2023-05-07T04:04:58;32.90;;;17.38;;
55489;SDS011;44029;52.956;4.772;2023-05-07T04:07:23;33.30;;;18.13;;
55489;SDS011;44029;52.956;4.772;2023-05-07T04:09:48;28.15;;;17.90;;
55489;SDS011;44029;52.956;4.772;2023-05-07T04:12:14;29.15;;;17.20;;
55489;SDS011;44029;52.956;4.772;2023-05-07T04:14:40;27.35;;;16.25;;
55489;SDS011;44029;52.956;4.772;2023-05-07T04:17:05;26.10;;;16.23;;
55489;SDS011;44029;52.956;4.772;2023-05-07T04:19:32;30.63;;;13.55;;
55489;SDS011;44029;52.956;4.772;2023-05-07T04:21:58;24.27;;;13.73;;
55489;SDS011;44029;52.956;4.772;2023-05-07T04:24:23;23.58;;;14.13;;
55489;SDS011;44029;52.956;4.772;2023-05-07T04:26:49;23.25;;;13.50;;
55489;SDS011;44029;52.956;4.772;2023-05-07T04:29:16;18.48;;;12.48;;
55489;SDS011;44029;52.956;4.772;2023-05-07T04:31:41;24.63;;;13.20;;
55489;SDS011;44029;52.956;4.772;2023-05-07T04:34:09;19.42;;;11.82;;
55489;SDS011;44029;52.956;4.772;2023-05-07T04:36:35;20.10;;;12.32;;
55489;SDS011;44029;52.956;4.772;2023-05-07T04:39:03;19.67;;;11.48;;
55489;SDS011;44029;52.956;4.772;2023-05-07T04:41:29;22.73;;;13.23;;
55489;SDS011;44029;52.956;4.772;2023-05-07T04:43:54;17.30;;;12.50;;
55489;SDS011;44029;52.956;4.772;2023-05-07T04:46:20;17.92;;;11.70;;
55489;SDS011;44029;52.956;4.772;2023-05-07T04:48:45;22.08;;;13.32;;
55489;SDS011;44029;52.956;4.772;2023-05-07T04:51:11;26.77;;;15.45;;
55489;SDS011;44029;52.956;4.772;2023-05-07T04:53:37;28.50;;;16.08;;
55489;SDS011;44029;52.956;4.772;2023-05-07T04:56:02;25.25;;;13.27;;
55489;SDS011;44029;52.956;4.772;2023-05-07T04:58:28;24.60;;;14.48;;
55489;SDS011;44029;52.956;4.772;2023-05-07T05:00:56;28.85;;;13.13;;
55489;SDS011;44029;52.956;4.772;2023-05-07T05:03:22;22.73;;;13.60;;
55489;SDS011;44029;52.956;4.772;2023-05-07T05:05:48;23.00;;;14.55;;
55489;SDS011;44029;52.956;4.772;2023-05-07T05:08:14;22.75;;;14.35;;
55489;SDS011;44029;52.956;4.772;2023-05-07T05:10:39;22.40;;;14.93;;
55489;SDS011;44029;52.956;4.772;2023-05-07T05:13:06;25.40;;;15.70;;
55489;SDS011;44029;52.956;4.772;2023-05-07T05:15:32;24.85;;;13.88;;
55489;SDS011;44029;52.956;4.772;2023-05-07T05:17:57;28.58;;;15.80;;
55489;SDS011;44029;52.956;4.772;2023-05-07T05:20:22;25.00;;;16.25;;
55489;SDS011;44029;52.956;4.772;2023-05-07T05:22:47;23.85;;;14.27;;
55489;SDS011;44029;52.956;4.772;2023-05-07T05:25:13;32.42;;;19.02;;
55489;SDS011;44029;52.956;4.772;2023-05-07T05:27:38;25.25;;;14.93;;
55489;SDS011;44029;52.956;4.772;2023-05-07T05:30:04;23.05;;;14.15;;
55489;SDS011;44029;52.956;4.772;2023-05-07T05:32:30;27.08;;;16.00;;
55489;SDS011;44029;52.956;4.772;2023-05-07T05:34:56;29.17;;;16.75;;
55489;SDS011;44029;52.956;4.772;2023-05-07T05:37:21;30.75;;;16.38;;
55489;SDS011;44029;52.956;4.772;2023-05-07T05:39:46;29.63;;;18.00;;
55489;SDS011;44029;52.956;4.772;2023-05-07T05:42:12;32.05;;;18.00;;
55489;SDS011;44029;52.956;4.772;2023-05-07T05:44:37;23.05;;;14.93;;
55489;SDS011;44029;52.956;4.772;2023-05-07T05:47:03;34.72;;;19.48;;
55489;SDS011;44029;52.956;4.772;2023-05-07T05:49:28;35.92;;;21.15;;
55489;SDS011;44029;52.956;4.772;2023-05-07T05:51:53;33.08;;;19.48;;
55489;SDS011;44029;52.956;4.772;2023-05-07T05:54:19;47.72;;;25.23;;
55489;SDS011;44029;52.956;4.772;2023-05-07T05:56:44;34.63;;;21.30;;
55489;SDS011;44029;52.956;4.772;2023-05-07T05:59:10;34.15;;;21.20;;
55489;SDS011;44029;52.956;4.772;2023-05-07T06:01:35;33.42;;;20.73;;
55489;SDS011;44029;52.956;4.772;2023-05-07T06:04:01;32.28;;;20.10;;
55489;SDS011;44029;52.956;4.772;2023-05-07T06:06:26;33.55;;;21.30;;
55489;SDS011;44029;52.956;4.772;2023-05-07T06:08:52;40.65;;;22.17;;
55489;SDS011;44029;52.956;4.772;2023-05-07T06:11:17;30.63;;;17.70;;
55489;SDS011;44029;52.956;4.772;2023-05-07T06:13:43;31.35;;;17.35;;
55489;SDS011;44029;52.956;4.772;2023-05-07T06:16:08;31.60;;;19.30;;
55489;SDS011;44029;52.956;4.772;2023-05-07T06:18:33;35.72;;;20.50;;
55489;SDS011;44029;52.956;4.772;2023-05-07T06:21:01;30.50;;;19.20;;
55489;SDS011;44029;52.956;4.772;2023-05-07T06:23:26;31.70;;;18.40;;
55489;SDS011;44029;52.956;4.772;2023-05-07T06:25:51;32.67;;;19.00;;
55489;SDS011;44029;52.956;4.772;2023-05-07T06:28:17;39.33;;;22.08;;
55489;SDS011;44029;52.956;4.772;2023-05-07T06:30:42;30.85;;;18.98;;
55489;SDS011;44029;52.956;4.772;2023-05-07T06:33:08;32.38;;;18.23;;
55489;SDS011;44029;52.956;4.772;2023-05-07T06:35:33;29.52;;;17.85;;
55489;SDS011;44029;52.956;4.772;2023-05-07T06:37:59;30.70;;;17.40;;
55489;SDS011;44029;52.956;4.772;2023-05-07T06:40:25;33.42;;;19.17;;
55489;SDS011;44029;52.956;4.772;2023-05-07T06:42:50;34.58;;;18.15;;
55489;SDS011;44029;52.956;4.772;2023-05-07T06:45:16;36.35;;;18.73;;
55489;SDS011;44029;52.956;4.772;2023-05-07T06:47:42;29.50;;;17.67;;
55489;SDS011;44029;52.956;4.772;2023-05-07T06:50:07;27.95;;;17.85;;
55489;SDS011;44029;52.956;4.772;2023-05-07T06:52:33;27.77;;;16.42;;
55489;SDS011;44029;52.956;4.772;2023-05-07T06:54:59;32.45;;;18.45;;
55489;SDS011;44029;52.956;4.772;2023-05-07T06:57:24;27.88;;;18.88;;
55489;SDS011;44029;52.956;4.772;2023-05-07T06:59:50;26.83;;;17.13;;
55489;SDS011;44029;52.956;4.772;2023-05-07T07:02:15;26.67;;;17.83;;
55489;SDS011;44029;52.956;4.772;2023-05-07T07:04:40;26.88;;;15.90;;
55489;SDS011;44029;52.956;4.772;2023-05-07T07:07:06;25.65;;;15.05;;
55489;SDS011;44029;52.956;4.772;2023-05-07T07:09:32;25.27;;;16.90;;
55489;SDS011;44029;52.956;4.772;2023-05-07T07:11:57;32.00;;;16.60;;
55489;SDS011;44029;52.956;4.772;2023-05-07T07:14:23;26.73;;;16.08;;
55489;SDS011;44029;52.956;4.772;2023-05-07T07:16:48;28.70;;;15.88;;
55489;SDS011;44029;52.956;4.772;2023-05-07T07:19:13;28.23;;;17.02;;
55489;SDS011;44029;52.956;4.772;2023-05-07T07:21:40;27.63;;;16.08;;
55489;SDS011;44029;52.956;4.772;2023-05-07T07:24:06;27.23;;;17.33;;
55489;SDS011;44029;52.956;4.772;2023-05-07T07:26:31;26.52;;;14.95;;
55489;SDS011;44029;52.956;4.772;2023-05-07T07:28:56;25.25;;;15.98;;
55489;SDS011;44029;52.956;4.772;2023-05-07T07:31:22;22.85;;;14.45;;
55489;SDS011;44029;52.956;4.772;2023-05-07T07:33:47;24.95;;;14.40;;
55489;SDS011;44029;52.956;4.772;2023-05-07T07:36:14;23.17;;;14.32;;
55489;SDS011;44029;52.956;4.772;2023-05-07T07:38:40;26.73;;;14.00;;
55489;SDS011;44029;52.956;4.772;2023-05-07T07:41:07;24.40;;;13.85;;
55489;SDS011;44029;52.956;4.772;2023-05-07T07:43:33;25.42;;;15.43;;
55489;SDS011;44029;52.956;4.772;2023-05-07T07:45:58;27.50;;;14.63;;
55489;SDS011;44029;52.956;4.772;2023-05-07T07:48:23;24.08;;;15.55;;
55489;SDS011;44029;52.956;4.772;2023-05-07T07:50:49;22.23;;;15.48;;
55489;SDS011;44029;52.956;4.772;2023-05-07T07:53:16;25.27;;;13.98;;
55489;SDS011;44029;52.956;4.772;2023-05-07T07:55:41;26.77;;;15.25;;
55489;SDS011;44029;52.956;4.772;2023-05-07T07:58:07;28.67;;;16.42;;
55489;SDS011;44029;52.956;4.772;2023-05-07T08:00:32;27.20;;;16.08;;
55489;SDS011;44029;52.956;4.772;2023-05-07T08:02:57;27.05;;;15.27;;
55489;SDS011;44029;52.956;4.772;2023-05-07T08:05:23;29.50;;;15.33;;
55489;SDS011;44029;52.956;4.772;2023-05-07T08:07:48;24.42;;;15.13;;
55489;SDS011;44029;52.956;4.772;2023-05-07T08:10:18;30.00;;;17.13;;
55489;SDS011;44029;52.956;4.772;2023-05-07T08:12:49;25.80;;;16.13;;
55489;SDS011;44029;52.956;4.772;2023-05-07T08:15:15;27.20;;;15.13;;
55489;SDS011;44029;52.956;4.772;2023-05-07T08:17:41;25.48;;;15.02;;
55489;SDS011;44029;52.956;4.772;2023-05-07T08:20:07;32.33;;;16.17;;
55489;SDS011;44029;52.956;4.772;2023-05-07T08:22:34;28.75;;;16.17;;
55489;SDS011;44029;52.956;4.772;2023-05-07T08:25:00;24.50;;;14.55;;
55489;SDS011;44029;52.956;4.772;2023-05-07T08:27:26;27.65;;;16.00;;
55489;SDS011;44029;52.956;4.772;2023-05-07T08:29:51;24.52;;;15.65;;
55489;SDS011;44029;52.956;4.772;2023-05-07T08:32:17;28.02;;;16.85;;
55489;SDS011;44029;52.956;4.772;2023-05-07T08:34:42;24.58;;;15.23;;
55489;SDS011;44029;52.956;4.772;2023-05-07T08:37:07;20.27;;;13.27;;
55489;SDS011;44029;52.956;4.772;2023-05-07T08:39:32;26.55;;;16.02;;
55489;SDS011;44029;52.956;4.772;2023-05-07T08:41:59;26.58;;;14.85;;
55489;SDS011;44029;52.956;4.772;2023-05-07T08:44:26;23.73;;;14.13;;
55489;SDS011;44029;52.956;4.772;2023-05-07T08:46:54;28.55;;;15.68;;
55489;SDS011;44029;52.956;4.772;2023-05-07T08:49:21;24.60;;;15.52;;
55489;SDS011;44029;52.956;4.772;2023-05-07T08:51:47;25.65;;;14.73;;
55489;SDS011;44029;52.956;4.772;2023-05-07T08:54:15;26.20;;;15.32;;
55489;SDS011;44029;52.956;4.772;2023-05-07T08:56:41;24.55;;;15.27;;
55489;SDS011;44029;52.956;4.772;2023-05-07T08:59:07;30.13;;;14.38;;
55489;SDS011;44029;52.956;4.772;2023-05-07T09:01:32;25.73;;;15.02;;
55489;SDS011;44029;52.956;4.772;2023-05-07T09:04:00;26.00;;;14.65;;
55489;SDS011;44029;52.956;4.772;2023-05-07T09:06:25;25.92;;;16.58;;
55489;SDS011;44029;52.956;4.772;2023-05-07T09:08:52;22.73;;;15.23;;
55489;SDS011;44029;52.956;4.772;2023-05-07T09:11:22;20.00;;;13.85;;
55489;SDS011;44029;52.956;4.772;2023-05-07T09:13:48;23.20;;;15.20;;
55489;SDS011;44029;52.956;4.772;2023-05-07T09:16:19;23.08;;;14.40;;
55489;SDS011;44029;52.956;4.772;2023-05-07T09:18:45;24.88;;;15.25;;
55489;SDS011;44029;52.956;4.772;2023-05-07T09:21:16;26.83;;;15.80;;
55489;SDS011;44029;52.956;4.772;2023-05-07T09:23:42;24.63;;;15.43;;
55489;SDS011;44029;52.956;4.772;2023-05-07T09:26:07;27.92;;;15.68;;
55489;SDS011;44029;52.956;4.772;2023-05-07T09:28:40;26.90;;;16.58;;
55489;SDS011;44029;52.956;4.772;2023-05-07T09:31:06;27.63;;;18.25;;
55489;SDS011;44029;52.956;4.772;2023-05-07T09:33:35;25.48;;;15.30;;
55489;SDS011;44029;52.956;4.772;2023-05-07T09:36:04;24.27;;;16.13;;
55489;SDS011;44029;52.956;4.772;2023-05-07T09:38:31;23.15;;;14.90;;
55489;SDS011;44029;52.956;4.772;2023-05-07T09:41:03;23.60;;;16.10;;
55489;SDS011;44029;52.956;4.772;2023-05-07T09:43:36;25.80;;;15.95;;
55489;SDS011;44029;52.956;4.772;2023-05-07T09:46:03;23.42;;;15.23;;
55489;SDS011;44029;52.956;4.772;2023-05-07T09:48:42;24.77;;;14.95;;
55489;SDS011;44029;52.956;4.772;2023-05-07T09:51:15;25.23;;;15.60;;
55489;SDS011;44029;52.956;4.772;2023-05-07T09:53:53;27.00;;;16.67;;
55489;SDS011;44029;52.956;4.772;2023-05-07T09:56:19;27.83;;;15.70;;
55489;SDS011;44029;52.956;4.772;2023-05-07T09:58:45;29.08;;;17.35;;
55489;SDS011;44029;52.956;4.772;2023-05-07T10:01:11;27.05;;;16.10;;
55489;SDS011;44029;52.956;4.772;2023-05-07T10:03:38;30.75;;;17.55;;
55489;SDS011;44029;52.956;4.772;2023-05-07T10:06:05;25.90;;;16.50;;
55489;SDS011;44029;52.956;4.772;2023-05-07T10:08:33;24.60;;;14.73;;
55489;SDS011;44029;52.956;4.772;2023-05-07T10:11:00;27.70;;;17.17;;
55489;SDS011;44029;52.956;4.772;2023-05-07T10:13:26;27.35;;;16.23;;
55489;SDS011;44029;52.956;4.772;2023-05-07T10:15:52;26.30;;;17.08;;
55489;SDS011;44029;52.956;4.772;2023-05-07T10:18:18;24.90;;;15.55;;
55489;SDS011;44029;52.956;4.772;2023-05-07T10:20:48;23.85;;;16.35;;
55489;SDS011;44029;52.956;4.772;2023-05-07T10:23:17;30.77;;;17.30;;
55489;SDS011;44029;52.956;4.772;2023-05-07T10:28:13;33.60;;;19.00;;
55489;SDS011;44029;52.956;4.772;2023-05-07T10:33:19;25.63;;;16.27;;
55489;SDS011;44029;52.956;4.772;2023-05-07T10:35:48;31.40;;;16.85;;
55489;SDS011;44029;52.956;4.772;2023-05-07T10:38:14;28.38;;;16.65;;
55489;SDS011;44029;52.956;4.772;2023-05-07T10:40:40;30.42;;;17.95;;
55489;SDS011;44029;52.956;4.772;2023-05-07T10:43:05;28.30;;;16.08;;
55489;SDS011;44029;52.956;4.772;2023-05-07T10:45:31;26.00;;;17.15;;
55489;SDS011;44029;52.956;4.772;2023-05-07T10:48:11;26.52;;;15.80;;
55489;SDS011;44029;52.956;4.772;2023-05-07T10:50:40;35.35;;;17.60;;
55489;SDS011;44029;52.956;4.772;2023-05-07T10:55:41;27.45;;;17.08;;
55489;SDS011;44029;52.956;4.772;2023-05-07T11:00:55;28.75;;;16.75;;
55489;SDS011;44029;52.956;4.772;2023-05-07T11:03:24;27.33;;;16.77;;
55489;SDS011;44029;52.956;4.772;2023-05-07T11:06:09;25.40;;;16.13;;
55489;SDS011;44029;52.956;4.772;2023-05-07T11:08:56;28.45;;;17.63;;
55489;SDS011;44029;52.956;4.772;2023-05-07T11:14:11;43.53;;;21.08;;
55489;SDS011;44029;52.956;4.772;2023-05-07T11:16:36;32.85;;;17.85;;
55489;SDS011;44029;52.956;4.772;2023-05-07T11:19:03;30.73;;;18.33;;
55489;SDS011;44029;52.956;4.772;2023-05-07T11:21:39;27.98;;;17.48;;
55489;SDS011;44029;52.956;4.772;2023-05-07T11:24:09;29.00;;;17.45;;
55489;SDS011;44029;52.956;4.772;2023-05-07T11:26:42;27.33;;;17.25;;
55489;SDS011;44029;52.956;4.772;2023-05-07T11:29:13;33.60;;;19.77;;
55489;SDS011;44029;52.956;4.772;2023-05-07T11:31:52;25.63;;;16.35;;
55489;SDS011;44029;52.956;4.772;2023-05-07T11:34:22;30.58;;;17.90;;
55489;SDS011;44029;52.956;4.772;2023-05-07T11:36:49;30.55;;;17.35;;
55489;SDS011;44029;52.956;4.772;2023-05-07T11:39:25;29.95;;;17.42;;
55489;SDS011;44029;52.956;4.772;2023-05-07T11:41:52;27.00;;;17.20;;
55489;SDS011;44029;52.956;4.772;2023-05-07T11:44:17;28.23;;;16.48;;
55489;SDS011;44029;52.956;4.772;2023-05-07T11:46:43;29.83;;;17.08;;
55489;SDS011;44029;52.956;4.772;2023-05-07T11:49:09;23.33;;;15.60;;
55489;SDS011;44029;52.956;4.772;2023-05-07T11:51:35;30.50;;;18.75;;
55489;SDS011;44029;52.956;4.772;2023-05-07T11:54:00;28.20;;;16.23;;
55489;SDS011;44029;52.956;4.772;2023-05-07T11:56:28;25.17;;;16.35;;
55489;SDS011;44029;52.956;4.772;2023-05-07T11:58:54;27.27;;;16.83;;
55489;SDS011;44029;52.956;4.772;2023-05-07T12:01:19;25.00;;;16.45;;
55489;SDS011;44029;52.956;4.772;2023-05-07T12:03:45;26.33;;;17.40;;
55489;SDS011;44029;52.956;4.772;2023-05-07T12:06:11;27.42;;;16.77;;
55489;SDS011;44029;52.956;4.772;2023-05-07T12:08:38;30.90;;;15.93;;
55489;SDS011;44029;52.956;4.772;2023-05-07T12:11:15;27.73;;;17.20;;
55489;SDS011;44029;52.956;4.772;2023-05-07T12:13:46;26.20;;;16.00;;
55489;SDS011;44029;52.956;4.772;2023-05-07T12:16:12;26.15;;;16.65;;
55489;SDS011;44029;52.956;4.772;2023-05-07T12:18:37;25.02;;;16.30;;
55489;SDS011;44029;52.956;4.772;2023-05-07T12:21:03;27.60;;;16.23;;
55489;SDS011;44029;52.956;4.772;2023-05-07T12:23:30;24.30;;;15.18;;
55489;SDS011;44029;52.956;4.772;2023-05-07T12:25:55;22.92;;;15.82;;
55489;SDS011;44029;52.956;4.772;2023-05-07T12:28:21;26.77;;;14.70;;
55489;SDS011;44029;52.956;4.772;2023-05-07T12:30:47;30.13;;;17.70;;
55489;SDS011;44029;52.956;4.772;2023-05-07T12:33:17;30.65;;;16.83;;
55489;SDS011;44029;52.956;4.772;2023-05-07T12:35:45;27.45;;;15.85;;
55489;SDS011;44029;52.956;4.772;2023-05-07T12:38:13;26.13;;;16.02;;
55489;SDS011;44029;52.956;4.772;2023-05-07T12:40:40;26.65;;;16.27;;
55489;SDS011;44029;52.956;4.772;2023-05-07T12:43:08;26.50;;;16.17;;
55489;SDS011;44029;52.956;4.772;2023-05-07T12:45:42;25.50;;;15.48;;
55489;SDS011;44029;52.956;4.772;2023-05-07T12:48:12;26.42;;;16.88;;
55489;SDS011;44029;52.956;4.772;2023-05-07T12:50:37;25.58;;;16.25;;
55489;SDS011;44029;52.956;4.772;2023-05-07T12:53:03;27.83;;;16.13;;
55489;SDS011;44029;52.956;4.772;2023-05-07T12:55:39;27.08;;;16.02;;
55489;SDS011;44029;52.956;4.772;2023-05-07T12:58:14;27.38;;;17.20;;
55489;SDS011;44029;52.956;4.772;2023-05-07T13:03:08;22.90;;;15.48;;
55489;SDS011;44029;52.956;4.772;2023-05-07T13:05:33;26.05;;;16.20;;
55489;SDS011;44029;52.956;4.772;2023-05-07T13:07:58;26.10;;;15.05;;
55489;SDS011;44029;52.956;4.772;2023-05-07T13:10:24;27.42;;;16.23;;
55489;SDS011;44029;52.956;4.772;2023-05-07T13:12:50;23.90;;;15.30;;
55489;SDS011;44029;52.956;4.772;2023-05-07T13:15:17;27.10;;;15.63;;
55489;SDS011;44029;52.956;4.772;2023-05-07T13:17:42;26.98;;;16.00;;
55489;SDS011;44029;52.956;4.772;2023-05-07T13:20:11;24.42;;;13.95;;
55489;SDS011;44029;52.956;4.772;2023-05-07T13:22:40;23.88;;;14.95;;
55489;SDS011;44029;52.956;4.772;2023-05-07T13:25:06;24.00;;;15.30;;
55489;SDS011;44029;52.956;4.772;2023-05-07T13:27:32;23.33;;;14.68;;
55489;SDS011;44029;52.956;4.772;2023-05-07T13:30:00;24.65;;;15.40;;
55489;SDS011;44029;52.956;4.772;2023-05-07T13:32:25;23.60;;;15.25;;
55489;SDS011;44029;52.956;4.772;2023-05-07T13:34:51;27.02;;;16.65;;
55489;SDS011;44029;52.956;4.772;2023-05-07T13:37:16;23.63;;;14.85;;
55489;SDS011;44029;52.956;4.772;2023-05-07T13:39:41;24.58;;;15.23;;
55489;SDS011;44029;52.956;4.772;2023-05-07T13:42:07;26.27;;;14.95;;
55489;SDS011;44029;52.956;4.772;2023-05-07T13:44:32;22.88;;;13.63;;
55489;SDS011;44029;52.956;4.772;2023-05-07T13:46:58;24.50;;;14.73;;
55489;SDS011;44029;52.956;4.772;2023-05-07T13:49:23;23.67;;;13.38;;
55489;SDS011;44029;52.956;4.772;2023-05-07T13:51:49;25.05;;;13.40;;
55489;SDS011;44029;52.956;4.772;2023-05-07T13:54:14;21.10;;;13.10;;
55489;SDS011;44029;52.956;4.772;2023-05-07T13:56:40;22.52;;;13.57;;
55489;SDS011;44029;52.956;4.772;2023-05-07T13:59:06;22.67;;;13.30;;
55489;SDS011;44029;52.956;4.772;2023-05-07T14:01:31;22.65;;;13.55;;
55489;SDS011;44029;52.956;4.772;2023-05-07T14:03:57;21.75;;;14.25;;
55489;SDS011;44029;52.956;4.772;2023-05-07T14:06:25;25.90;;;15.32;;
55489;SDS011;44029;52.956;4.772;2023-05-07T14:08:50;25.05;;;15.90;;
55489;SDS011;44029;52.956;4.772;2023-05-07T14:11:16;22.92;;;13.90;;
55489;SDS011;44029;52.956;4.772;2023-05-07T14:13:41;22.95;;;14.15;;
55489;SDS011;44029;52.956;4.772;2023-05-07T14:16:07;19.98;;;12.38;;
55489;SDS011;44029;52.956;4.772;2023-05-07T14:18:33;18.27;;;10.20;;
55489;SDS011;44029;52.956;4.772;2023-05-07T14:20:59;19.75;;;10.80;;
55489;SDS011;44029;52.956;4.772;2023-05-07T14:23:24;22.13;;;12.13;;
55489;SDS011;44029;52.956;4.772;2023-05-07T14:25:51;19.70;;;12.07;;
55489;SDS011;44029;52.956;4.772;2023-05-07T14:28:17;19.45;;;11.70;;
55489;SDS011;44029;52.956;4.772;2023-05-07T14:30:43;20.38;;;12.18;;
55489;SDS011;44029;52.956;4.772;2023-05-07T14:33:08;22.00;;;12.10;;